Danbury, New Hampshire
Current Conditions -  °F | °C
As of 4:35 AM on Tuesday 21 Oct 2014 (Local Time) from K1P1 Reporting Station
Light Rain Light Rain  
Wind Chill: 40°   Ceiling: 6500
Heat Index: 40°   Visibility: 10mi
Dew Point: 40°   Wind: 0mph
Humidity: 100%   Direction: NA
Pressure: 30"   Gusts: NA
Location:  43.53°N, 71.86°W
Report Text: K1P1 210835Z AUTO 00000KT 10SM -RA OVC065 05/05 A3000 RMK AO2 T00460046
Loading
Personal Weather Stations






























Interactive Weather Map
Tropical Storm Tracking
New forecast layout! Learn more

10-Day Weather Forecast

Advertisements
Track Severe Weather on mobile